Gettysburg, PA

12:08 AM EST on November 24, 2014 (GMT -0500)
Cumberland Township | Change Station
CLOSE
Current Station
Personal Weather Station
Location: Gettysburg, PA
Elevation: 528 ft
Nearby Weather Stations

Elev 528 ft 39.82 °N, 77.26 °W | Updated 3 seconds ago

Rain
Rain
42.4 °F
Feels Like 42 °F
N
0.0
Wind Variable Wind from ENE
Gusts 0.0 mph

Today
High -- | Low -- °F
--% Chance of Precip.
Yesterday
High -- | Low -- °F
Precip. -- in
7:03 AM 4:47 PM
Waxing Crescent, 3% visible
Pressure 29.78 in
Visibility 2.5 miles
Clouds Mostly Cloudy 700 ft
Overcast 1200 ft
Windchill 42 °F
Dew Point 41 °F
Humidity 95%
Rainfall 0.02 in
Snow Depth Not available.
UV 0 out of 12
Pollen .10 out of 12
Air Quality Not available.
Flu Activity Not available.
METAR KRYT 240453Z AUTO 07004KT 2 1/2SM -RA BR BKN007 OVC012 07/06 A2977 RMK AO2 SLP084 P0015 T00720061 401220011 $

More Conditions Fewer Conditions

Pressure 29.78 in
Visibility 2.5 miles
Clouds Mostly Cloudy 700 ft
Overcast 1200 ft
Windchill 42 °F
Dew Point 41 °F
Humidity 95%
Rainfall 0.02 in
Snow Depth Not available.
UV 0 out of 12
Pollen .10 out of 12
Air Quality Not available.
Flu Activity Not available.
METAR KRYT 240453Z AUTO 07004KT 2 1/2SM -RA BR BKN007 OVC012 07/06 A2977 RMK AO2 SLP084 P0015 T00720061 401220011 $

More Conditions Fewer Conditions

Nowcast | as of 11:26 PM EST on November 23, 2014

A steady rain will fall over the area between 1130 PM and 2 am.

×

10-Day Weather Forecast

Almanac

Astronomy

Nov. 24, 2014 Rise Set
Actual Time
Civil Twilight
Nautical Twilight
Astronomical Twilight
Moon
Length of Visible Light
Length of Day
Tomorrow will be .
, % of the Moon is Illuminated

Today's Extremes

State Highs State Lows

Community

WunderPhotos

Upload Photos

1,773,269 photos uploaded!

WunderBlogs® & News

Nearby

Air Quality

  Air Quality AQ Index Pollutant
Not available.

Snow Depth

Station Depth Elevation

Earthquake Activity

City Distance Mag. Time & Date
Minimum magnitude displayed is 2.5.

Coastal Water Temperatures

Place Temperature

Nearby Weather Stations